Moscow, Russia
Current Conditions -  °F | °C
As of 3:00 PM on Thursday 23 Oct 2014 (Local Time) from UUWW Reporting Station
Broken Clouds Broken Clouds  
Wind Chill:   Ceiling: 2900
Heat Index: 19°   Visibility: 6mi
Dew Point:   Wind: 16mph
Humidity: 63%   Direction: 360°N
Pressure: 30.3"   Gusts: NA
Location:  55.75°N, 37.62°E
Report Text: UUWW 231200Z 36007MPS 9999 BKN029 M07/M13 Q1026 01190045 NOSIG
Loading
Personal Weather Stations






























Interactive Weather Map New forecast layout! Learn more

10-Day Weather Forecast

Advertisements
Track Severe Weather on mobile